DOC501 LPFL-LPGR

Flight info

Callsign DOC501
Flight time 0h 29m
Altitude 19000
Route NESDU
Aircraft B350/L-SDFGIRXYZ/LB1

Departure

Time 2026-04-28 22:51
Airport Flores Airport (LPFL)

Arrival

Time 2026-04-28 23:21
Airport Graciosa Airport (LPGR)
Time Latitude Longitude Altitude Speed Heading
2026-04-28 22:51 39.39751 -30.75134 15507 ft 209 kts 108°
2026-04-28 22:51 39.39514 -30.73270 16155 ft 209 kts 108°
2026-04-28 22:51 39.39277 -30.71415 16800 ft 209 kts 109°
2026-04-28 22:52 39.39038 -30.69557 17422 ft 210 kts 109°
2026-04-28 22:52 39.38802 -30.67714 18033 ft 210 kts 110°
2026-04-28 22:52 39.38561 -30.65843 18541 ft 213 kts 110°
2026-04-28 22:52 39.38304 -30.63903 18818 ft 225 kts 110°
2026-04-28 22:53 39.38020 -30.61817 18843 ft 244 kts 110°
2026-04-28 22:53 39.37721 -30.59592 18860 ft 258 kts 109°
2026-04-28 22:53 39.37415 -30.57261 18865 ft 268 kts 109°
2026-04-28 22:53 39.37104 -30.54854 18867 ft 276 kts 108°
2026-04-28 22:54 39.36784 -30.52374 18866 ft 282 kts 108°
2026-04-28 22:54 39.36461 -30.49854 18867 ft 285 kts 108°
2026-04-28 22:54 39.36137 -30.47349 18866 ft 288 kts 108°
2026-04-28 22:54 39.35804 -30.44785 18876 ft 289 kts 108°
2026-04-28 22:55 39.35470 -30.42218 18871 ft 290 kts 108°
2026-04-28 22:55 39.35135 -30.39639 18866 ft 290 kts 108°
2026-04-28 22:55 39.34806 -30.37081 18871 ft 288 kts 108°
2026-04-28 22:55 39.34480 -30.34532 18863 ft 287 kts 109°
2026-04-28 22:56 39.34152 -30.31994 18867 ft 286 kts 109°
2026-04-28 22:56 39.33823 -30.29462 18865 ft 285 kts 109°
2026-04-28 22:56 39.33490 -30.26933 18865 ft 285 kts 109°
2026-04-28 22:56 39.33154 -30.24410 18865 ft 285 kts 109°
2026-04-28 22:57 39.32818 -30.21889 18873 ft 285 kts 109°
2026-04-28 22:57 39.32485 -30.19395 18869 ft 285 kts 109°
2026-04-28 22:57 39.32149 -30.16870 18870 ft 285 kts 109°
2026-04-28 22:57 39.31813 -30.14353 18868 ft 285 kts 109°
2026-04-28 22:58 39.31475 -30.11825 18871 ft 285 kts 109°
2026-04-28 22:58 39.31139 -30.09305 18870 ft 285 kts 109°
2026-04-28 22:58 39.30802 -30.06785 18870 ft 285 kts 109°
2026-04-28 22:58 39.30469 -30.04294 18872 ft 285 kts 109°
2026-04-28 22:59 39.30131 -30.01774 18875 ft 285 kts 110°
2026-04-28 22:59 39.29792 -29.99256 18870 ft 285 kts 110°
2026-04-28 22:59 39.29452 -29.96730 18870 ft 285 kts 110°
2026-04-28 22:59 39.29111 -29.94206 18874 ft 285 kts 110°
2026-04-28 23:00 39.28770 -29.91677 18871 ft 285 kts 110°
2026-04-28 23:00 39.28427 -29.89144 18871 ft 285 kts 110°
2026-04-28 23:00 39.28089 -29.86652 18870 ft 285 kts 110°
2026-04-28 23:00 39.27747 -29.84126 18870 ft 285 kts 110°
2026-04-28 23:01 39.27404 -29.81601 18872 ft 285 kts 110°
2026-04-28 23:01 39.27060 -29.79072 18872 ft 285 kts 110°
2026-04-28 23:01 39.26720 -29.76573 18870 ft 286 kts 110°
2026-04-28 23:01 39.26375 -29.74051 18871 ft 286 kts 110°
2026-04-28 23:02 39.26029 -29.71522 18871 ft 286 kts 110°
2026-04-28 23:02 39.25682 -29.68991 18866 ft 286 kts 111°
2026-04-28 23:02 39.25334 -29.66464 18874 ft 286 kts 111°
2026-04-28 23:02 39.24987 -29.63937 18869 ft 286 kts 111°
2026-04-28 23:03 39.24639 -29.61411 18874 ft 286 kts 111°
2026-04-28 23:03 39.24290 -29.58885 18874 ft 286 kts 111°
2026-04-28 23:03 39.23947 -29.56394 18873 ft 286 kts 111°
2026-04-28 23:03 39.23597 -29.53867 18874 ft 286 kts 111°
2026-04-28 23:04 39.23247 -29.51348 18868 ft 286 kts 111°
2026-04-28 23:04 39.22547 -29.46301 18871 ft 285 kts 111°
2026-04-28 23:04 39.22197 -29.43779 18872 ft 285 kts 111°
2026-04-28 23:05 39.21846 -29.41257 18878 ft 285 kts 111°
2026-04-28 23:05 39.21493 -29.38737 18875 ft 285 kts 111°
2026-04-28 23:05 39.21143 -29.36249 18875 ft 285 kts 111°
2026-04-28 23:05 39.20788 -29.33728 18873 ft 285 kts 111°
2026-04-28 23:06 39.20434 -29.31215 18874 ft 285 kts 111°
2026-04-28 23:06 39.20079 -29.28695 18873 ft 285 kts 111°
2026-04-28 23:06 39.19723 -29.26174 18873 ft 285 kts 111°
2026-04-28 23:06 39.19368 -29.23657 18872 ft 285 kts 111°
2026-04-28 23:07 39.19132 -29.21992 18870 ft 285 kts 111°
2026-04-28 23:07 39.18774 -29.19477 18873 ft 285 kts 111°
2026-04-28 23:07 39.18415 -29.16955 18872 ft 285 kts 111°
2026-04-28 23:07 39.18062 -29.14470 18874 ft 285 kts 111°
2026-04-28 23:08 39.17704 -29.11951 18872 ft 285 kts 111°
2026-04-28 23:08 39.17347 -29.09433 18862 ft 285 kts 111°
2026-04-28 23:08 39.16975 -29.06881 18555 ft 295 kts 111°
2026-04-28 23:08 39.16567 -29.04243 18054 ft 304 kts 111°
2026-04-28 23:09 39.16140 -29.01552 17506 ft 308 kts 110°
2026-04-28 23:09 39.15731 -28.98820 16970 ft 312 kts 109°
2026-04-28 23:09 39.15349 -28.96086 16449 ft 315 kts 108°
2026-04-28 23:09 39.14968 -28.93301 15931 ft 314 kts 108°
2026-04-28 23:10 39.14591 -28.90534 15419 ft 311 kts 108°
2026-04-28 23:10 39.14212 -28.87798 14921 ft 308 kts 107°
2026-04-28 23:10 39.13836 -28.85111 14434 ft 302 kts 107°
2026-04-28 23:10 39.13461 -28.82463 13950 ft 298 kts 107°
2026-04-28 23:11 39.13085 -28.79843 13441 ft 296 kts 107°
2026-04-28 23:11 39.12709 -28.77246 12903 ft 294 kts 107°
2026-04-28 23:11 39.12336 -28.74685 12385 ft 293 kts 107°
2026-04-28 23:11 39.11960 -28.72111 11874 ft 292 kts 107°
2026-04-28 23:12 39.11583 -28.69543 11365 ft 291 kts 106°
2026-04-28 23:12 39.11207 -28.66982 10866 ft 290 kts 106°
2026-04-28 23:12 39.10836 -28.64431 10377 ft 290 kts 106°
2026-04-28 23:12 39.10463 -28.61884 9894 ft 289 kts 105°
2026-04-28 23:13 39.10091 -28.59350 9367 ft 288 kts 105°
2026-04-28 23:13 39.09718 -28.56814 8844 ft 287 kts 105°
2026-04-28 23:13 39.09346 -28.54291 8322 ft 286 kts 105°
2026-04-28 23:13 39.08973 -28.51771 7811 ft 285 kts 105°
2026-04-28 23:14 39.08614 -28.49333 7309 ft 267 kts 105°
2026-04-28 23:14 39.08303 -28.47060 6851 ft 250 kts 104°
2026-04-28 23:14 39.08022 -28.44907 6419 ft 238 kts 104°
2026-04-28 23:14 39.07728 -28.42879 5969 ft 229 kts 105°
2026-04-28 23:15 39.07423 -28.40902 5542 ft 221 kts 105°
2026-04-28 23:15 39.07126 -28.38992 5161 ft 215 kts 105°
2026-04-28 23:15 39.06836 -28.37129 4781 ft 210 kts 105°
2026-04-28 23:15 39.06553 -28.35294 4390 ft 207 kts 105°
2026-04-28 23:16 39.06274 -28.33487 4012 ft 205 kts 105°
2026-04-28 23:16 39.06002 -28.31695 3630 ft 203 kts 105°
2026-04-28 23:16 39.05735 -28.29926 3257 ft 200 kts 105°
2026-04-28 23:16 39.05472 -28.28174 2872 ft 199 kts 105°
2026-04-28 23:17 39.05254 -28.26425 2492 ft 198 kts 95°
2026-04-28 23:17 39.05487 -28.24676 2134 ft 200 kts 75°
2026-04-28 23:17 39.05799 -28.22957 1996 ft 196 kts 83°
2026-04-28 23:17 39.06033 -28.21229 1999 ft 196 kts 81°
2026-04-28 23:18 39.06327 -28.19512 1973 ft 196 kts 79°
2026-04-28 23:18 39.06637 -28.17819 1965 ft 194 kts 79°
2026-04-28 23:18 39.06934 -28.16150 1966 ft 187 kts 79°
2026-04-28 23:18 39.07207 -28.14582 1837 ft 174 kts 80°
2026-04-28 23:19 39.07461 -28.13117 1604 ft 164 kts 80°
2026-04-28 23:19 39.07705 -28.11694 1374 ft 161 kts 79°
2026-04-28 23:19 39.07950 -28.10300 1154 ft 159 kts 79°
2026-04-28 23:19 39.08188 -28.08918 935 ft 158 kts 79°
2026-04-28 23:20 39.08414 -28.07604 728 ft 141 kts 79°
2026-04-28 23:20 39.08618 -28.06441 561 ft 127 kts 77°
2026-04-28 23:20 39.08807 -28.05363 398 ft 119 kts 76°
2026-04-28 23:20 39.08985 -28.04347 249 ft 115 kts 79°
2026-04-28 23:21 39.09146 -28.03402 94 ft 101 kts 79°
2026-04-28 23:21 39.09269 -28.02687 93 ft 48 kts 78°
2026-04-28 23:21 39.09296 -28.02512 89 ft 6 kts 78°
2026-04-28 23:21 39.09310 -28.02462 91 ft 6 kts 297°
2026-04-28 23:22 39.09294 -28.02534 89 ft 10 kts 254°
2026-04-28 23:22 39.09278 -28.02618 89 ft 10 kts 256°
2026-04-28 23:22 39.09262 -28.02706 89 ft 10 kts 257°
2026-04-28 23:22 39.09246 -28.02797 88 ft 11 kts 257°
2026-04-28 23:23 39.09211 -28.02851 88 ft 9 kts 172°
2026-04-28 23:23 39.09164 -28.02826 91 ft 7 kts 108°
2026-04-28 23:23 39.09166 -28.02783 89 ft 4 kts 111°
2026-04-28 23:23 39.09158 -28.02787 89 ft 0 kts 252°